createdAt,value
2023-04-29T00:00:36.656Z,100371.00
2023-04-29T00:03:06.886Z,100377.00
2023-04-29T00:05:37.152Z,100370.00
2023-04-29T00:08:07.656Z,100372.00
2023-04-29T00:10:40.220Z,100368.00
2023-04-29T00:13:10.330Z,100370.00
2023-04-29T00:15:40.404Z,100377.00
2023-04-29T00:18:10.528Z,100366.00
2023-04-29T00:20:40.820Z,100366.00
2023-04-29T00:23:11.115Z,100356.00
2023-04-29T00:25:43.657Z,100368.00
2023-04-29T00:28:13.791Z,100361.00
2023-04-29T00:30:43.833Z,100350.00
2023-04-29T00:33:13.818Z,100357.00
2023-04-29T00:35:43.765Z,100351.00
2023-04-29T00:38:13.724Z,100352.00
2023-04-29T00:40:46.588Z,100358.00
2023-04-29T00:43:17.110Z,100347.00
2023-04-29T00:45:47.213Z,100350.00
2023-04-29T00:48:17.423Z,100346.00
2023-04-29T00:50:47.816Z,100352.00
2023-04-29T00:53:17.841Z,100344.00
2023-04-29T00:55:51.823Z,100339.00
2023-04-29T00:58:22.948Z,100325.00
2023-04-29T01:00:54.692Z,100323.00
2023-04-29T01:03:26.276Z,100334.00
2023-04-29T01:06:14.274Z,100335.00
2023-04-29T01:08:55.924Z,100345.00
2023-04-29T01:11:38.350Z,100346.00
2023-04-29T01:14:08.614Z,100347.00
2023-04-29T01:16:45.768Z,100342.00
2023-04-29T01:19:43.036Z,100344.00
2023-04-29T01:22:12.988Z,100341.00
2023-04-29T01:24:45.521Z,100340.00
2023-04-29T01:27:28.690Z,100345.00
2023-04-29T01:30:07.103Z,100338.00
2023-04-29T01:32:52.620Z,100340.00
2023-04-29T01:35:43.178Z,100336.00
2023-04-29T01:38:26.676Z,100323.00
2023-04-29T01:41:13.640Z,100321.00
2023-04-29T01:43:45.103Z,100315.00
2023-04-29T01:46:20.081Z,100325.00
2023-04-29T01:48:50.396Z,100317.00
2023-04-29T01:51:20.483Z,100311.00
2023-04-29T01:53:50.488Z,100313.00
2023-04-29T01:56:23.055Z,100314.00
2023-04-29T01:58:53.000Z,100313.00
2023-04-29T02:01:23.001Z,100325.00
2023-04-29T02:03:53.233Z,100334.00
2023-04-29T02:06:23.966Z,100326.00
2023-04-29T02:08:54.003Z,100315.00
2023-04-29T02:11:26.883Z,100319.00
2023-04-29T02:13:57.523Z,100315.00
2023-04-29T02:16:27.662Z,100312.00
2023-04-29T02:18:57.682Z,100317.00
2023-04-29T02:21:27.746Z,100313.00
2023-04-29T02:23:57.937Z,100306.00
2023-04-29T02:26:30.490Z,100307.00
2023-04-29T02:29:00.443Z,100308.00
2023-04-29T02:31:30.831Z,100312.00
2023-04-29T02:34:00.856Z,100316.00
2023-04-29T02:36:31.641Z,100310.00
2023-04-29T02:39:01.790Z,100296.00
2023-04-29T02:41:34.347Z,100294.00
2023-04-29T02:44:04.277Z,100301.00
2023-04-29T02:46:36.224Z,100294.00
2023-04-29T02:49:06.607Z,100301.00
2023-04-29T02:51:36.960Z,100303.00
2023-04-29T02:54:07.046Z,100302.00
2023-04-29T02:56:39.632Z,100301.00
2023-04-29T02:59:09.849Z,100289.00
2023-04-29T03:01:40.109Z,100295.00
2023-04-29T03:04:10.519Z,100288.00
2023-04-29T03:06:40.731Z,100289.00
2023-04-29T03:09:10.783Z,100297.00
2023-04-29T03:11:43.341Z,100291.00
2023-04-29T03:14:13.287Z,100285.00
2023-04-29T03:16:43.337Z,100281.00
2023-04-29T03:19:13.302Z,100292.00
2023-04-29T03:21:43.403Z,100290.00
2023-04-29T03:24:13.455Z,100296.00
2023-04-29T03:26:45.990Z,100287.00
2023-04-29T03:29:15.936Z,100300.00
2023-04-29T03:31:46.310Z,100295.00
2023-04-29T03:34:17.093Z,100286.00
2023-04-29T03:36:47.042Z,100288.00
2023-04-29T03:39:17.009Z,100288.00
2023-04-29T03:41:50.615Z,100288.00
2023-04-29T03:44:20.581Z,100280.00
2023-04-29T03:46:50.523Z,100282.00
2023-04-29T03:49:20.544Z,100283.00
2023-04-29T03:51:50.562Z,100288.00
2023-04-29T03:54:20.608Z,100284.00
2023-04-29T03:56:53.157Z,100283.00
2023-04-29T03:59:23.356Z,100292.00
2023-04-29T04:01:54.523Z,100289.00
2023-04-29T04:04:24.766Z,100293.00
2023-04-29T04:06:54.800Z,100291.00
2023-04-29T04:09:24.763Z,100288.00
2023-04-29T04:11:57.323Z,100290.00
2023-04-29T04:14:27.789Z,100291.00
2023-04-29T04:16:57.796Z,100282.00
2023-04-29T04:19:29.299Z,100292.00
2023-04-29T04:21:59.290Z,100290.00
2023-04-29T04:24:29.225Z,100295.00
2023-04-29T04:27:02.036Z,100291.00
2023-04-29T04:29:32.006Z,100293.00
2023-04-29T04:32:02.071Z,100294.00
2023-04-29T04:34:32.521Z,100298.00
2023-04-29T04:37:02.731Z,100292.00
2023-04-29T04:39:32.686Z,100290.00
2023-04-29T04:42:06.043Z,100290.00
2023-04-29T04:44:36.131Z,100289.00
2023-04-29T04:47:06.470Z,100293.00
2023-04-29T04:49:36.412Z,100296.00
2023-04-29T04:52:07.001Z,100294.00
2023-04-29T04:54:38.516Z,100295.00
2023-04-29T04:57:11.062Z,100289.00
2023-04-29T04:59:41.025Z,100296.00
2023-04-29T05:02:11.057Z,100295.00
2023-04-29T05:04:41.033Z,100296.00
2023-04-29T05:07:11.094Z,100297.00
2023-04-29T05:09:41.048Z,100294.00
2023-04-29T05:12:13.596Z,100308.00
2023-04-29T05:14:43.600Z,100303.00
2023-04-29T05:17:13.616Z,100304.00
2023-04-29T05:19:43.878Z,100303.00
2023-04-29T05:22:13.845Z,100306.00
2023-04-29T05:24:43.805Z,100307.00
2023-04-29T05:27:16.329Z,100306.00
2023-04-29T05:29:46.498Z,100307.00
2023-04-29T05:32:16.528Z,100311.00
2023-04-29T05:34:46.666Z,100311.00
2023-04-29T05:37:16.622Z,100309.00
2023-04-29T05:39:46.588Z,100318.00
2023-04-29T05:42:19.118Z,100315.00
2023-04-29T05:44:49.071Z,100317.00
2023-04-29T05:47:19.184Z,100311.00
2023-04-29T05:49:49.285Z,100312.00
2023-04-29T05:52:19.232Z,100318.00
2023-04-29T05:54:49.171Z,100314.00
2023-04-29T05:57:21.850Z,100319.00
2023-04-29T05:59:51.920Z,100317.00
2023-04-29T06:02:22.109Z,100318.00
2023-04-29T06:04:52.321Z,100320.00
2023-04-29T06:07:22.994Z,100320.00
2023-04-29T06:09:53.391Z,100318.00
2023-04-29T06:12:26.238Z,100326.00
2023-04-29T06:14:56.358Z,100322.00
2023-04-29T06:17:29.355Z,100335.00
2023-04-29T06:19:59.471Z,100324.00
2023-04-29T06:22:29.455Z,100335.00
2023-04-29T06:24:59.404Z,100335.00
2023-04-29T06:27:31.985Z,100335.00
2023-04-29T06:30:01.950Z,100337.00
2023-04-29T06:32:31.911Z,100338.00
2023-04-29T06:35:01.887Z,100345.00
2023-04-29T06:37:31.841Z,100342.00
2023-04-29T06:40:01.819Z,100340.00
2023-04-29T06:42:34.373Z,100339.00
2023-04-29T06:45:04.993Z,100350.00
2023-04-29T06:47:34.989Z,100347.00
2023-04-29T06:50:05.308Z,100348.00
2023-04-29T06:52:35.300Z,100350.00
2023-04-29T06:55:05.680Z,100356.00
2023-04-29T06:57:39.171Z,100352.00
2023-04-29T07:00:11.718Z,100353.00
2023-04-29T07:02:41.772Z,100357.00
2023-04-29T07:05:13.104Z,100357.00
2023-04-29T07:07:43.082Z,100359.00
2023-04-29T07:10:13.685Z,100360.00
2023-04-29T07:12:46.211Z,100364.00
2023-04-29T07:15:16.236Z,100370.00
2023-04-29T07:17:46.232Z,100361.00
2023-04-29T07:20:17.533Z,100375.00
2023-04-29T07:22:47.514Z,100364.00
2023-04-29T07:25:17.735Z,100373.00
2023-04-29T07:27:50.681Z,100367.00
2023-04-29T07:30:20.732Z,100371.00
2023-04-29T07:32:50.773Z,100375.00
2023-04-29T07:35:21.452Z,100376.00
2023-04-29T07:37:51.420Z,100389.00
2023-04-29T07:40:21.464Z,100375.00
2023-04-29T07:42:54.072Z,100391.00
2023-04-29T07:45:24.021Z,100395.00
2023-04-29T07:47:54.076Z,100392.00
2023-04-29T07:50:24.074Z,100398.00
2023-04-29T07:52:55.348Z,100401.00
2023-04-29T07:55:27.216Z,100404.00
2023-04-29T07:58:00.615Z,100408.00
2023-04-29T08:00:31.601Z,100407.00
2023-04-29T08:03:01.720Z,100412.00
2023-04-29T08:05:32.464Z,100410.00
2023-04-29T08:08:02.649Z,100417.00
2023-04-29T08:10:32.712Z,100420.00
2023-04-29T08:13:05.248Z,100420.00
2023-04-29T08:15:35.209Z,100432.00
2023-04-29T08:18:05.264Z,100436.00
2023-04-29T08:20:35.349Z,100439.00
2023-04-29T08:23:05.531Z,100441.00
2023-04-29T08:25:35.565Z,100446.00
2023-04-29T08:28:08.520Z,100449.00
2023-04-29T08:30:42.736Z,100464.00
2023-04-29T08:33:13.189Z,100459.00
2023-04-29T08:35:43.360Z,100457.00
2023-04-29T08:38:13.646Z,100469.00
2023-04-29T08:40:47.167Z,100478.00
2023-04-29T08:43:20.592Z,100483.00
2023-04-29T08:45:52.636Z,100482.00
2023-04-29T08:48:23.031Z,100491.00
2023-04-29T08:50:53.318Z,100490.00
2023-04-29T08:53:24.084Z,100497.00
2023-04-29T08:55:54.289Z,100493.00
2023-04-29T08:58:29.044Z,100505.00
2023-04-29T09:01:00.218Z,100511.00
2023-04-29T09:03:37.366Z,100519.00
2023-04-29T09:06:09.293Z,100516.00
2023-04-29T09:08:39.880Z,100526.00
2023-04-29T09:11:12.741Z,100536.00
2023-04-29T09:13:45.394Z,100540.00
2023-04-29T09:16:15.926Z,100539.00
2023-04-29T09:18:48.822Z,100548.00
2023-04-29T09:21:22.834Z,100548.00
2023-04-29T09:23:55.124Z,100548.00
2023-04-29T09:26:25.795Z,100549.00
2023-04-29T09:29:16.481Z,100549.00
2023-04-29T09:31:47.269Z,100559.00
2023-04-29T09:34:17.839Z,100555.00
2023-04-29T09:36:50.100Z,100565.00
2023-04-29T09:39:22.447Z,100581.00
2023-04-29T09:42:03.865Z,100581.00
2023-04-29T09:44:38.686Z,100568.00
2023-04-29T09:47:10.724Z,100582.00
2023-04-29T09:49:44.913Z,100597.00
2023-04-29T09:52:20.823Z,100604.00
2023-04-29T09:54:51.323Z,100603.00
2023-04-29T09:57:25.682Z,100604.00
2023-04-29T09:59:58.433Z,100611.00
2023-04-29T10:02:30.633Z,100614.00
2023-04-29T10:05:02.143Z,100612.00
2023-04-29T10:07:32.799Z,100624.00
2023-04-29T10:10:03.041Z,100628.00
2023-04-29T10:12:34.317Z,100623.00
2023-04-29T10:15:15.379Z,100627.00
2023-04-29T10:17:49.866Z,100635.00
2023-04-29T10:20:28.128Z,100639.00
2023-04-29T10:23:00.104Z,100637.00
2023-04-29T10:25:30.886Z,100644.00
2023-04-29T10:28:04.443Z,100651.00
2023-04-29T10:30:38.765Z,100655.00
2023-04-29T10:33:11.076Z,100651.00
2023-04-29T10:35:41.381Z,100659.00
2023-04-29T10:38:20.228Z,100670.00
2023-04-29T10:40:51.632Z,100660.00
2023-04-29T10:43:27.000Z,100665.00
2023-04-29T10:46:26.617Z,100671.00
2023-04-29T10:49:03.834Z,100675.00
2023-04-29T10:51:35.904Z,100669.00
2023-04-29T10:54:11.074Z,100674.00
2023-04-29T10:56:47.825Z,100680.00
2023-04-29T10:59:19.817Z,100677.00
2023-04-29T11:01:54.150Z,100679.00
2023-04-29T11:04:26.000Z,100675.00
2023-04-29T11:06:59.217Z,100677.00
2023-04-29T11:09:31.565Z,100684.00
2023-04-29T11:12:06.868Z,100684.00
2023-04-29T11:14:41.427Z,100697.00
2023-04-29T11:17:16.657Z,100698.00
2023-04-29T11:19:49.810Z,100697.00
2023-04-29T11:22:30.943Z,100698.00
2023-04-29T11:25:03.272Z,100700.00
2023-04-29T11:27:35.745Z,100691.00
2023-04-29T11:30:09.432Z,100696.00
2023-04-29T11:32:44.850Z,100708.00
2023-04-29T11:35:17.421Z,100703.00
2023-04-29T11:37:49.732Z,100702.00
2023-04-29T11:40:19.671Z,100711.00
2023-04-29T11:42:51.351Z,100711.00
2023-04-29T11:45:22.717Z,100714.00
2023-04-29T11:47:56.101Z,100717.00
2023-04-29T11:50:26.306Z,100701.00
2023-04-29T11:52:56.463Z,100726.00
2023-04-29T11:55:26.792Z,100735.00
2023-04-29T11:57:56.799Z,100740.00
2023-04-29T12:00:28.157Z,100737.00
2023-04-29T12:03:02.133Z,100731.00
2023-04-29T12:05:32.708Z,100741.00
2023-04-29T12:08:02.783Z,100746.00
2023-04-29T12:10:33.727Z,100735.00
2023-04-29T12:13:03.756Z,100739.00
2023-04-29T12:15:34.550Z,100753.00
2023-04-29T12:18:07.326Z,100746.00
2023-04-29T12:20:39.393Z,100756.00
2023-04-29T12:23:16.305Z,100754.00
2023-04-29T12:25:53.245Z,100757.00
2023-04-29T12:28:24.183Z,100759.00
2023-04-29T12:30:56.848Z,100754.00
2023-04-29T12:33:32.402Z,100756.00
2023-04-29T12:36:02.630Z,100763.00
2023-04-29T12:38:35.036Z,100763.00
2023-04-29T12:41:07.655Z,100756.00
2023-04-29T12:43:37.659Z,100765.00
2023-04-29T12:46:09.423Z,100770.00
2023-04-29T12:48:44.092Z,100766.00
2023-04-29T12:51:13.976Z,100775.00
2023-04-29T12:53:44.061Z,100778.00
2023-04-29T12:56:15.300Z,100781.00
2023-04-29T12:58:45.244Z,100779.00
2023-04-29T13:01:18.394Z,100777.00
2023-04-29T13:03:51.840Z,100790.00
2023-04-29T13:06:21.969Z,100786.00
2023-04-29T13:08:52.374Z,100783.00
2023-04-29T13:11:22.366Z,100778.00
2023-04-29T13:13:52.874Z,100779.00
2023-04-29T13:16:25.237Z,100786.00
2023-04-29T13:19:05.228Z,100788.00
2023-04-29T13:21:38.492Z,100793.00
2023-04-29T13:24:10.658Z,100798.00
2023-04-29T13:26:41.630Z,100802.00
2023-04-29T13:29:11.636Z,100807.00
2023-04-29T13:31:44.168Z,100805.00
2023-04-29T13:34:17.020Z,100809.00
2023-04-29T13:36:47.324Z,100808.00
2023-04-29T13:39:20.027Z,100802.00
2023-04-29T13:41:51.155Z,100811.00
2023-04-29T13:44:29.635Z,100813.00
2023-04-29T13:47:06.512Z,100810.00
2023-04-29T13:53:07.316Z,100809.00
2023-04-29T14:00:31.537Z,100817.00
2023-04-29T14:03:03.600Z,100813.00
2023-04-29T14:05:37.087Z,100821.00
2023-04-29T14:08:07.782Z,100818.00
2023-04-29T14:10:38.047Z,100821.00
2023-04-29T14:13:08.162Z,100822.00
2023-04-29T14:15:38.386Z,100827.00
2023-04-29T14:18:09.759Z,100827.00
2023-04-29T14:20:42.434Z,100831.00
2023-04-29T14:23:12.549Z,100838.00
2023-04-29T14:25:42.806Z,100832.00
2023-04-29T14:28:12.933Z,100852.00
2023-04-29T14:30:46.200Z,100851.00
2023-04-29T14:33:17.112Z,100845.00
2023-04-29T14:35:49.800Z,100846.00
2023-04-29T14:38:19.960Z,100855.00
2023-04-29T14:40:50.305Z,100850.00
2023-04-29T14:43:20.376Z,100856.00
2023-04-29T14:45:50.627Z,100852.00
2023-04-29T14:48:20.733Z,100855.00
2023-04-29T14:50:53.449Z,100863.00
2023-04-29T14:53:24.166Z,100858.00
2023-04-29T14:55:54.268Z,100866.00
2023-04-29T14:58:24.388Z,100862.00
2023-04-29T15:00:55.148Z,100864.00
2023-04-29T15:03:25.649Z,100867.00
2023-04-29T15:05:58.981Z,100865.00
2023-04-29T15:08:29.136Z,100869.00
2023-04-29T15:10:59.221Z,100873.00
2023-04-29T15:13:31.422Z,100866.00
2023-04-29T15:16:02.139Z,100876.00
2023-04-29T15:18:32.307Z,100882.00
2023-04-29T15:21:04.976Z,100879.00
2023-04-29T15:23:35.254Z,100879.00
2023-04-29T15:26:05.423Z,100883.00
2023-04-29T15:28:35.819Z,100877.00
2023-04-29T15:31:06.485Z,100880.00
2023-04-29T15:33:36.805Z,100883.00
2023-04-29T15:36:10.223Z,100892.00
2023-04-29T15:38:40.177Z,100877.00
2023-04-29T15:41:10.140Z,100883.00
2023-04-29T15:43:40.475Z,100887.00
2023-04-29T15:46:10.499Z,100893.00
2023-04-29T15:48:40.493Z,100892.00
2023-04-29T15:51:15.232Z,100901.00
2023-04-29T15:53:45.348Z,100899.00
2023-04-29T15:56:15.317Z,100903.00
2023-04-29T15:58:45.260Z,100902.00
2023-04-29T16:01:15.312Z,100903.00
2023-04-29T16:03:45.371Z,100910.00
2023-04-29T16:06:19.455Z,100917.00
2023-04-29T16:08:50.316Z,100917.00
2023-04-29T16:11:20.268Z,100927.00
2023-04-29T16:13:50.209Z,100930.00
2023-04-29T16:16:20.205Z,100929.00
2023-04-29T16:18:50.164Z,100934.00
2023-04-29T16:21:22.904Z,100933.00
2023-04-29T16:23:53.076Z,100935.00
2023-04-29T16:26:23.109Z,100935.00
2023-04-29T16:28:53.229Z,100936.00
2023-04-29T16:31:23.788Z,100938.00
2023-04-29T16:33:57.196Z,100933.00
2023-04-29T16:36:30.285Z,100937.00
2023-04-29T16:39:00.222Z,100942.00
2023-04-29T16:41:30.193Z,100935.00
2023-04-29T16:44:00.547Z,100940.00
2023-04-29T16:46:30.763Z,100947.00
2023-04-29T16:49:00.924Z,100952.00
2023-04-29T16:51:33.657Z,100962.00
2023-04-29T16:54:03.757Z,100955.00
2023-04-29T16:56:33.685Z,100952.00
2023-04-29T16:59:03.816Z,100952.00
2023-04-29T17:01:33.850Z,100958.00
2023-04-29T17:04:04.264Z,100963.00
2023-04-29T17:06:37.170Z,100958.00
2023-04-29T17:09:07.676Z,100961.00
2023-04-29T17:11:37.686Z,100972.00
2023-04-29T17:14:07.735Z,100966.00
2023-04-29T17:16:37.924Z,100975.00
2023-04-29T17:19:08.366Z,100973.00
2023-04-29T17:21:40.906Z,100977.00
2023-04-29T17:24:10.867Z,100984.00
2023-04-29T17:26:40.973Z,100979.00
2023-04-29T17:29:12.279Z,100984.00
2023-04-29T17:31:54.547Z,100987.00
2023-04-29T17:34:28.930Z,100981.00
2023-04-29T17:37:01.755Z,100984.00
2023-04-29T17:39:31.938Z,100990.00
2023-04-29T17:42:02.258Z,100991.00
2023-04-29T17:44:32.210Z,100998.00
2023-04-29T17:47:02.197Z,101001.00
2023-04-29T17:49:32.185Z,100995.00
2023-04-29T17:52:04.961Z,101001.00
2023-04-29T17:54:34.932Z,101011.00
2023-04-29T17:57:04.887Z,101014.00
2023-04-29T17:59:34.902Z,101008.00
2023-04-29T18:02:04.924Z,101018.00
2023-04-29T18:04:34.896Z,101015.00
2023-04-29T18:07:07.410Z,101022.00
2023-04-29T18:09:37.641Z,101027.00
2023-04-29T18:12:08.205Z,101025.00
2023-04-29T18:14:39.336Z,101023.00
2023-04-29T18:17:09.327Z,101029.00
2023-04-29T18:19:39.281Z,101035.00
2023-04-29T18:22:11.851Z,101032.00
2023-04-29T18:24:41.830Z,101040.00
2023-04-29T18:27:11.845Z,101044.00
2023-04-29T18:29:41.811Z,101053.00
2023-04-29T18:32:12.125Z,101053.00
2023-04-29T18:34:42.496Z,101056.00
2023-04-29T18:37:15.063Z,101052.00
2023-04-29T18:39:45.039Z,101062.00
2023-04-29T18:42:15.126Z,101064.00
2023-04-29T18:44:45.863Z,101069.00
2023-04-29T18:47:15.854Z,101066.00
2023-04-29T18:49:46.019Z,101072.00
2023-04-29T18:52:19.000Z,101085.00
2023-04-29T18:54:49.156Z,101078.00
2023-04-29T18:57:19.174Z,101089.00
2023-04-29T18:59:49.454Z,101090.00
2023-04-29T19:02:19.399Z,101087.00
2023-04-29T19:04:49.409Z,101101.00
2023-04-29T19:07:21.989Z,101091.00
2023-04-29T19:09:52.277Z,101094.00
2023-04-29T19:12:22.741Z,101103.00
2023-04-29T19:14:52.756Z,101105.00
2023-04-29T19:17:22.834Z,101111.00
2023-04-29T19:19:53.165Z,101112.00
2023-04-29T19:22:25.967Z,101110.00
2023-04-29T19:24:56.091Z,101119.00
2023-04-29T19:27:26.080Z,101120.00
2023-04-29T19:29:56.220Z,101120.00
2023-04-29T19:32:28.223Z,101129.00
2023-04-29T19:35:00.093Z,101120.00
2023-04-29T19:37:32.739Z,101127.00
2023-04-29T19:40:02.784Z,101132.00
2023-04-29T19:42:33.004Z,101140.00
2023-04-29T19:45:03.216Z,101131.00
2023-04-29T19:47:33.239Z,101141.00
2023-04-29T19:50:03.196Z,101140.00
2023-04-29T19:52:35.764Z,101140.00
2023-04-29T19:55:06.116Z,101140.00
2023-04-29T19:57:36.110Z,101147.00
2023-04-29T20:00:07.248Z,101139.00
2023-04-29T20:02:37.484Z,101147.00
2023-04-29T20:05:08.881Z,101148.00
2023-04-29T20:07:41.656Z,101150.00
2023-04-29T20:10:12.846Z,101157.00
2023-04-29T20:12:43.068Z,101166.00
2023-04-29T20:15:14.306Z,101164.00
2023-04-29T20:17:44.403Z,101161.00
2023-04-29T20:20:14.869Z,101175.00
2023-04-29T20:22:47.498Z,101177.00
2023-04-29T20:25:17.689Z,101171.00
2023-04-29T20:27:47.745Z,101179.00
2023-04-29T20:30:17.726Z,101176.00
2023-04-29T20:32:48.464Z,101177.00
2023-04-29T20:35:18.700Z,101171.00
2023-04-29T20:37:51.564Z,101178.00
2023-04-29T20:40:22.056Z,101187.00
2023-04-29T20:42:52.039Z,101185.00
2023-04-29T20:45:22.352Z,101193.00
2023-04-29T20:47:53.016Z,101191.00
2023-04-29T20:50:23.772Z,101198.00
2023-04-29T20:52:56.364Z,101197.00
2023-04-29T20:55:26.701Z,101189.00
2023-04-29T20:57:56.869Z,101201.00
2023-04-29T21:00:26.861Z,101194.00
2023-04-29T21:02:56.867Z,101203.00
2023-04-29T21:05:26.963Z,101204.00
2023-04-29T21:07:59.516Z,101206.00
2023-04-29T21:10:29.463Z,101206.00
2023-04-29T21:12:59.436Z,101216.00
2023-04-29T21:15:29.797Z,101218.00
2023-04-29T21:17:59.917Z,101216.00
2023-04-29T21:20:30.467Z,101219.00
2023-04-29T21:23:03.079Z,101225.00
2023-04-29T21:25:33.157Z,101228.00
2023-04-29T21:28:04.055Z,101230.00
2023-04-29T21:30:34.040Z,101225.00
2023-04-29T21:33:04.171Z,101235.00
2023-04-29T21:35:34.200Z,101237.00
2023-04-29T21:38:06.713Z,101233.00
2023-04-29T21:40:36.680Z,101229.00
2023-04-29T21:43:06.720Z,101222.00
2023-04-29T21:45:36.959Z,101235.00
2023-04-29T21:48:17.072Z,101242.00
2023-04-29T21:50:48.002Z,101237.00
2023-04-29T21:53:20.538Z,101237.00
2023-04-29T21:55:50.531Z,101241.00
2023-04-29T21:58:21.109Z,101245.00
2023-04-29T22:00:58.562Z,101244.00
2023-04-29T22:03:28.727Z,101246.00
2023-04-29T22:05:59.196Z,101247.00
2023-04-29T22:08:31.794Z,101250.00
2023-04-29T22:11:01.726Z,101265.00
2023-04-29T22:13:31.702Z,101268.00
2023-04-29T22:16:01.669Z,101255.00
2023-04-29T22:18:31.710Z,101259.00
2023-04-29T22:21:01.721Z,101270.00
2023-04-29T22:23:34.324Z,101266.00
2023-04-29T22:26:04.383Z,101270.00
2023-04-29T22:28:34.353Z,101276.00
2023-04-29T22:31:04.337Z,101273.00
2023-04-29T22:33:35.165Z,101285.00
2023-04-29T22:36:05.463Z,101281.00
2023-04-29T22:38:38.052Z,101288.00
2023-04-29T22:41:09.751Z,101295.00
2023-04-29T22:43:39.741Z,101294.00
2023-04-29T22:46:09.983Z,101302.00
2023-04-29T22:48:40.021Z,101301.00
2023-04-29T22:51:09.997Z,101307.00
2023-04-29T22:53:42.542Z,101315.00
2023-04-29T22:56:12.617Z,101305.00
2023-04-29T22:58:42.555Z,101315.00
2023-04-29T23:01:12.579Z,101317.00
2023-04-29T23:03:42.587Z,101320.00
2023-04-29T23:06:12.611Z,101319.00
2023-04-29T23:08:45.178Z,101322.00
2023-04-29T23:11:15.154Z,101325.00
2023-04-29T23:13:45.211Z,101322.00
2023-04-29T23:16:15.481Z,101319.00
2023-04-29T23:18:45.465Z,101323.00
2023-04-29T23:21:15.443Z,101329.00
2023-04-29T23:23:47.998Z,101327.00
2023-04-29T23:26:17.958Z,101326.00
2023-04-29T23:28:47.951Z,101321.00
2023-04-29T23:31:18.008Z,101325.00
2023-04-29T23:33:48.875Z,101328.00
2023-04-29T23:36:18.808Z,101329.00
2023-04-29T23:38:51.334Z,101335.00
2023-04-29T23:41:21.428Z,101330.00
2023-04-29T23:43:51.395Z,101334.00
2023-04-29T23:46:21.446Z,101329.00
2023-04-29T23:48:51.405Z,101338.00
2023-04-29T23:51:21.349Z,101338.00
2023-04-29T23:53:53.888Z,101333.00
2023-04-29T23:56:24.998Z,101334.00
2023-04-29T23:58:54.928Z,101332.00
